Albany, Wisconsin
Current Conditions -  °F | °C
As of 1:15 AM on Thursday 18 Dec 2014 (Local Time) from KEFT Reporting Station
Scattered Clouds Scattered Clouds  
Wind Chill: 11°   Ceiling: Unl
Heat Index: 19°   Visibility: 10mi
Dew Point: 16°   Wind: 6mph
Humidity: 86%   Direction: 360°N
Pressure: 30.25"   Gusts: NA
Location:  42.71°N, 89.44°W
Report Text: KEFT 180715Z AUTO 36005KT 10SM SCT016 M07/M09 A3025 RMK AO2
Loading
Personal Weather Stations






























Interactive Weather Map New forecast layout! Learn more

10-Day Weather Forecast

Advertisements
Track Severe Weather on mobile